createdAt,value
2023-05-20T00:02:13.893Z,6.53
2023-05-20T00:05:00.367Z,7.18
2023-05-20T00:07:46.500Z,7.20
2023-05-20T00:10:32.919Z,6.68
2023-05-20T00:13:20.681Z,7.00
2023-05-20T00:16:07.273Z,6.85
2023-05-20T00:18:53.758Z,6.95
2023-05-20T00:21:40.011Z,7.90
2023-05-20T00:24:26.652Z,7.30
2023-05-20T00:27:12.677Z,7.25
2023-05-20T00:30:00.513Z,6.95
2023-05-20T00:32:46.874Z,7.40
2023-05-20T00:35:33.372Z,7.35
2023-05-20T00:38:20.102Z,7.40
2023-05-20T00:41:06.582Z,7.35
2023-05-20T00:43:54.576Z,6.82
2023-05-20T00:46:42.061Z,8.10
2023-05-20T00:49:28.210Z,7.63
2023-05-20T00:52:15.013Z,6.97
2023-05-20T00:55:01.314Z,7.95
2023-05-20T00:57:47.601Z,7.05
2023-05-20T01:00:34.043Z,7.40
2023-05-20T01:03:22.408Z,7.72
2023-05-20T01:06:08.638Z,8.07
2023-05-20T01:08:55.054Z,7.85
2023-05-20T01:11:45.943Z,7.60
2023-05-20T01:14:35.823Z,7.55
2023-05-20T01:17:22.404Z,7.93
2023-05-20T01:20:11.176Z,6.90
2023-05-20T01:22:58.562Z,7.20
2023-05-20T01:25:44.996Z,8.25
2023-05-20T01:28:31.290Z,7.43
2023-05-20T01:31:20.801Z,9.38
2023-05-20T01:34:07.515Z,8.18
2023-05-20T01:36:53.932Z,8.10
2023-05-20T01:39:42.580Z,8.55
2023-05-20T01:42:29.966Z,8.23
2023-05-20T01:45:16.217Z,8.70
2023-05-20T01:48:03.439Z,7.50
2023-05-20T01:50:49.855Z,8.35
2023-05-20T01:53:36.202Z,7.60
2023-05-20T01:56:23.862Z,8.65
2023-05-20T01:59:10.383Z,7.50
2023-05-20T02:01:56.801Z,7.65
2023-05-20T02:04:47.682Z,7.45
2023-05-20T02:07:33.815Z,7.28
2023-05-20T02:10:20.184Z,7.60
2023-05-20T02:13:07.791Z,7.57
2023-05-20T02:15:53.917Z,7.28
2023-05-20T02:18:40.310Z,7.00
2023-05-20T02:21:27.075Z,7.63
2023-05-20T02:24:13.410Z,7.95
2023-05-20T02:26:59.821Z,7.97
2023-05-20T02:29:47.693Z,7.60
2023-05-20T02:32:33.953Z,7.65
2023-05-20T02:35:20.464Z,7.53
2023-05-20T02:38:06.740Z,8.27
2023-05-20T02:40:52.940Z,7.28
2023-05-20T02:43:40.655Z,7.43
2023-05-20T02:46:28.837Z,8.52
2023-05-20T02:49:15.129Z,8.90
2023-05-20T02:52:01.496Z,8.43
2023-05-20T02:54:47.816Z,9.32
2023-05-20T02:57:35.184Z,7.57
2023-05-20T03:00:23.201Z,7.93
2023-05-20T03:03:11.222Z,8.70
2023-05-20T03:05:57.515Z,8.90
2023-05-20T03:08:43.826Z,8.52
2023-05-20T03:11:30.142Z,8.75
2023-05-20T03:14:16.333Z,8.98
2023-05-20T03:17:02.527Z,8.68
2023-05-20T03:19:50.310Z,8.15
2023-05-20T03:22:36.662Z,9.10
2023-05-20T03:25:23.540Z,8.57
2023-05-20T03:28:09.848Z,8.60
2023-05-20T03:30:56.173Z,8.85
2023-05-20T03:33:42.395Z,8.75
2023-05-20T03:36:30.295Z,8.15
2023-05-20T03:39:16.290Z,6.90
2023-05-20T03:42:02.465Z,7.53
2023-05-20T03:44:48.907Z,7.63
2023-05-20T03:47:35.161Z,8.07
2023-05-20T03:50:21.389Z,7.60
2023-05-20T03:53:09.212Z,7.05
2023-05-20T03:55:55.186Z,7.97
2023-05-20T03:58:41.934Z,7.35
2023-05-20T04:01:27.879Z,7.70
2023-05-20T04:04:14.286Z,8.48
2023-05-20T04:07:00.808Z,7.13
2023-05-20T04:09:48.211Z,8.45
2023-05-20T04:12:36.069Z,8.02
2023-05-20T04:15:23.876Z,8.40
2023-05-20T04:18:10.478Z,8.18
2023-05-20T04:20:57.238Z,8.18
2023-05-20T04:23:43.546Z,9.60
2023-05-20T04:26:31.269Z,8.18
2023-05-20T04:29:18.901Z,7.70
2023-05-20T04:32:05.255Z,8.45
2023-05-20T04:34:51.756Z,8.98
2023-05-20T04:37:38.219Z,8.30
2023-05-20T04:40:24.483Z,8.60
2023-05-20T04:43:12.209Z,8.55
2023-05-20T04:45:58.748Z,8.93
2023-05-20T04:48:44.898Z,8.50
2023-05-20T04:51:30.921Z,9.20
2023-05-20T04:54:17.913Z,8.10
2023-05-20T04:57:04.134Z,8.18
2023-05-20T04:59:52.505Z,8.80
2023-05-20T05:02:38.783Z,8.77
2023-05-20T05:05:25.428Z,9.38
2023-05-20T05:08:12.276Z,9.07
2023-05-20T05:10:58.383Z,8.77
2023-05-20T05:13:44.600Z,8.75
2023-05-20T05:16:32.219Z,8.60
2023-05-20T05:19:18.896Z,9.18
2023-05-20T05:22:05.172Z,8.13
2023-05-20T05:24:51.313Z,9.13
2023-05-20T05:27:37.661Z,8.45
2023-05-20T05:30:24.109Z,8.38
2023-05-20T05:33:11.814Z,8.77
2023-05-20T05:35:59.197Z,8.80
2023-05-20T05:38:45.693Z,7.65
2023-05-20T05:41:32.018Z,9.20
2023-05-20T05:44:18.250Z,8.88
2023-05-20T05:47:05.800Z,9.80
2023-05-20T05:49:53.526Z,10.00
2023-05-20T05:52:39.911Z,8.48
2023-05-20T05:55:26.208Z,9.38
2023-05-20T05:58:13.144Z,10.40
2023-05-20T06:00:59.491Z,10.48
2023-05-20T06:03:45.743Z,10.45
2023-05-20T06:06:33.705Z,8.55
2023-05-20T06:09:20.142Z,9.75
2023-05-20T06:12:06.546Z,8.90
2023-05-20T06:14:52.755Z,9.00
2023-05-20T06:17:39.051Z,9.18
2023-05-20T06:20:25.472Z,9.30
2023-05-20T06:23:13.214Z,8.88
2023-05-20T06:26:00.182Z,8.15
2023-05-20T06:28:46.285Z,9.18
2023-05-20T06:31:32.777Z,8.68
2023-05-20T06:34:19.147Z,9.93
2023-05-20T06:37:05.974Z,8.93
2023-05-20T06:39:54.120Z,9.25
2023-05-20T06:42:40.674Z,8.25
2023-05-20T06:45:26.991Z,9.55
2023-05-20T06:48:13.234Z,9.57
2023-05-20T06:50:59.650Z,9.30
2023-05-20T06:53:46.005Z,8.25
2023-05-20T06:56:33.721Z,8.73
2023-05-20T06:59:20.053Z,8.68
2023-05-20T07:02:06.772Z,8.68
2023-05-20T07:04:53.051Z,8.07
2023-05-20T07:07:40.060Z,9.15
2023-05-20T07:10:26.387Z,9.23
2023-05-20T07:13:13.979Z,9.43
2023-05-20T07:16:00.046Z,8.70
2023-05-20T07:18:46.159Z,8.60
2023-05-20T07:21:36.792Z,9.15
2023-05-20T07:24:22.726Z,8.65
2023-05-20T07:27:09.058Z,8.52
2023-05-20T07:29:58.133Z,8.73
2023-05-20T07:32:44.647Z,7.85
2023-05-20T07:35:30.996Z,9.52
2023-05-20T07:38:17.240Z,7.80
2023-05-20T07:41:03.594Z,8.85
2023-05-20T07:43:49.964Z,8.52
2023-05-20T07:46:38.170Z,8.32
2023-05-20T07:49:24.613Z,8.70
2023-05-20T07:52:11.296Z,9.15
2023-05-20T07:54:57.472Z,7.97
2023-05-20T07:57:44.927Z,9.43
2023-05-20T08:00:31.515Z,9.13
2023-05-20T08:03:19.700Z,9.00
2023-05-20T08:06:06.137Z,7.70
2023-05-20T08:08:54.365Z,9.15
2023-05-20T08:11:40.786Z,9.63
2023-05-20T08:14:27.145Z,10.23
2023-05-20T08:17:13.812Z,8.77
2023-05-20T08:20:01.359Z,8.85
2023-05-20T08:22:47.622Z,9.48
2023-05-20T08:25:34.311Z,9.63
2023-05-20T08:28:21.971Z,8.95
2023-05-20T08:31:08.326Z,9.00
2023-05-20T08:33:54.622Z,9.40
2023-05-20T08:36:42.376Z,9.20
2023-05-20T08:39:28.604Z,9.13
2023-05-20T08:42:15.171Z,8.63
2023-05-20T08:45:02.232Z,9.48
2023-05-20T08:47:48.701Z,8.48
2023-05-20T08:50:34.920Z,9.27
2023-05-20T08:53:23.631Z,8.95
2023-05-20T08:56:10.743Z,9.18
2023-05-20T08:58:57.215Z,7.03
2023-05-20T09:01:44.299Z,8.57
2023-05-20T09:04:31.156Z,7.93
2023-05-20T09:07:27.290Z,7.90
2023-05-20T09:10:15.215Z,9.02
2023-05-20T09:13:01.920Z,8.52
2023-05-20T09:15:48.372Z,9.65
2023-05-20T09:18:34.627Z,8.60
2023-05-20T09:21:26.120Z,7.80
2023-05-20T09:24:12.682Z,8.15
2023-05-20T09:27:00.441Z,8.35
2023-05-20T09:29:48.560Z,9.07
2023-05-20T09:32:35.031Z,8.43
2023-05-20T09:35:22.352Z,8.27
2023-05-20T09:38:10.025Z,7.35
2023-05-20T09:40:56.883Z,9.27
2023-05-20T09:43:45.726Z,7.65
2023-05-20T09:46:32.787Z,9.20
2023-05-20T09:49:20.204Z,8.18
2023-05-20T09:52:07.759Z,7.75
2023-05-20T09:54:56.398Z,8.77
2023-05-20T09:57:43.538Z,8.80
2023-05-20T10:00:31.569Z,8.65
2023-05-20T10:03:21.108Z,8.35
2023-05-20T10:06:17.438Z,8.32
2023-05-20T10:09:11.495Z,8.32
2023-05-20T10:12:04.555Z,8.63
2023-05-20T10:14:59.712Z,8.75
2023-05-20T10:17:51.583Z,8.80
2023-05-20T10:20:46.115Z,9.70
2023-05-20T10:23:32.328Z,8.73
2023-05-20T10:26:19.065Z,8.68
2023-05-20T10:29:15.787Z,8.68
2023-05-20T10:32:02.742Z,7.95
2023-05-20T10:34:51.403Z,8.40
2023-05-20T10:37:42.163Z,8.55
2023-05-20T10:40:28.449Z,8.95
2023-05-20T10:43:15.507Z,8.98
2023-05-20T10:46:03.262Z,8.13
2023-05-20T10:48:51.469Z,7.97
2023-05-20T10:51:39.450Z,7.95
2023-05-20T10:54:25.666Z,8.32
2023-05-20T10:57:12.262Z,8.25
2023-05-20T10:59:59.110Z,8.32
2023-05-20T11:02:45.873Z,8.10
2023-05-20T11:05:32.654Z,7.65
2023-05-20T11:08:27.695Z,7.95
2023-05-20T11:11:15.527Z,8.27
2023-05-20T11:14:01.654Z,8.30
2023-05-20T11:16:48.722Z,8.82
2023-05-20T11:19:38.099Z,9.27
2023-05-20T11:22:24.523Z,8.48
2023-05-20T11:25:12.489Z,8.45
2023-05-20T11:27:59.095Z,8.48
2023-05-20T11:30:45.281Z,8.40
2023-05-20T11:33:31.570Z,7.78
2023-05-20T11:36:27.493Z,7.97
2023-05-20T11:39:15.943Z,7.65
2023-05-20T11:42:04.225Z,9.48
2023-05-20T11:44:50.193Z,8.07
2023-05-20T11:47:36.659Z,8.20
2023-05-20T11:50:22.966Z,8.52
2023-05-20T11:53:10.169Z,7.05
2023-05-20T11:55:57.991Z,8.02
2023-05-20T11:58:46.228Z,7.93
2023-05-20T12:01:33.816Z,8.88
2023-05-20T12:04:20.300Z,7.35
2023-05-20T12:07:09.416Z,8.43
2023-05-20T12:09:55.830Z,8.45
2023-05-20T12:12:42.045Z,8.02
2023-05-20T12:15:30.092Z,7.70
2023-05-20T12:18:16.428Z,6.93
2023-05-20T12:21:02.625Z,7.93
2023-05-20T12:23:49.117Z,9.63
2023-05-20T12:26:36.734Z,7.00
2023-05-20T12:29:22.938Z,9.07
2023-05-20T12:32:10.645Z,8.23
2023-05-20T12:34:56.858Z,8.60
2023-05-20T12:37:43.848Z,7.80
2023-05-20T12:40:30.275Z,8.07
2023-05-20T12:43:16.833Z,7.85
2023-05-20T12:46:03.684Z,7.78
2023-05-20T12:48:53.569Z,7.70
2023-05-20T12:51:40.136Z,8.00
2023-05-20T12:54:28.163Z,7.82
2023-05-20T12:57:14.986Z,7.00
2023-05-20T13:00:01.126Z,7.28
2023-05-20T13:02:48.232Z,8.07
2023-05-20T13:05:35.808Z,7.50
2023-05-20T13:08:22.232Z,8.07
2023-05-20T13:11:08.463Z,7.28
2023-05-20T13:13:56.604Z,6.55
2023-05-20T13:16:42.758Z,6.97
2023-05-20T13:19:29.292Z,7.20
2023-05-20T13:22:17.082Z,6.30
2023-05-20T13:25:03.965Z,6.68
2023-05-20T13:27:49.959Z,6.57
2023-05-20T13:30:36.554Z,5.70
2023-05-20T13:33:24.306Z,7.20
2023-05-20T13:36:10.585Z,6.40
2023-05-20T13:38:58.225Z,8.77
2023-05-20T13:41:44.330Z,6.65
2023-05-20T13:44:32.437Z,6.28
2023-05-20T13:47:18.928Z,6.70
2023-05-20T13:50:05.549Z,7.70
2023-05-20T13:52:51.681Z,6.47
2023-05-20T13:55:39.347Z,7.22
2023-05-20T13:58:25.753Z,6.68
2023-05-20T14:01:13.154Z,6.95
2023-05-20T14:03:59.509Z,6.55
2023-05-20T14:06:45.698Z,7.75
2023-05-20T14:09:32.056Z,7.75
2023-05-20T14:12:19.778Z,7.03
2023-05-20T14:15:06.617Z,7.03
2023-05-20T14:17:53.006Z,7.80
2023-05-20T14:20:39.261Z,6.85
2023-05-20T14:23:25.515Z,7.82
2023-05-20T14:26:11.919Z,8.55
2023-05-20T14:28:59.597Z,7.03
2023-05-20T14:31:45.934Z,7.95
2023-05-20T14:34:32.172Z,8.77
2023-05-20T14:37:18.424Z,8.20
2023-05-20T14:40:07.429Z,8.80
2023-05-20T14:42:53.947Z,7.80
2023-05-20T14:45:41.774Z,8.38
2023-05-20T14:48:28.128Z,9.48
2023-05-20T14:51:14.406Z,9.02
2023-05-20T14:54:01.007Z,8.10
2023-05-20T14:56:49.791Z,8.00
2023-05-20T14:59:35.875Z,9.35
2023-05-20T15:02:23.552Z,8.43
2023-05-20T15:05:11.937Z,9.35
2023-05-20T15:07:58.171Z,7.80
2023-05-20T15:10:44.448Z,7.82
2023-05-20T15:13:30.759Z,8.30
2023-05-20T15:16:19.295Z,9.40
2023-05-20T15:19:06.942Z,9.40
2023-05-20T15:21:53.238Z,8.20
2023-05-20T15:24:39.377Z,9.23
2023-05-20T15:27:25.720Z,8.00
2023-05-20T15:30:12.810Z,8.82
2023-05-20T15:32:59.617Z,8.63
2023-05-20T15:35:47.228Z,8.52
2023-05-20T15:38:33.804Z,7.53
2023-05-20T15:41:21.615Z,8.50
2023-05-20T15:44:07.909Z,9.57
2023-05-20T15:46:54.420Z,7.65
2023-05-20T15:49:40.830Z,8.10
2023-05-20T15:52:28.721Z,7.40
2023-05-20T15:55:15.029Z,9.05
2023-05-20T15:58:01.304Z,7.70
2023-05-20T16:00:48.059Z,8.50
2023-05-20T16:03:34.250Z,8.98
2023-05-20T16:06:20.697Z,8.95
2023-05-20T16:09:08.358Z,8.70
2023-05-20T16:11:56.075Z,8.75
2023-05-20T16:14:42.595Z,7.78
2023-05-20T16:17:28.851Z,7.78
2023-05-20T16:20:15.172Z,8.20
2023-05-20T16:23:01.571Z,9.35
2023-05-20T16:25:49.084Z,7.47
2023-05-20T16:28:35.631Z,9.40
2023-05-20T16:31:22.202Z,9.27
2023-05-20T16:34:08.690Z,8.85
2023-05-20T16:36:55.135Z,9.80
2023-05-20T16:39:41.322Z,8.82
2023-05-20T16:42:28.937Z,12.52
2023-05-20T16:45:15.252Z,9.93
2023-05-20T16:48:01.726Z,9.98
2023-05-20T16:50:48.117Z,9.80
2023-05-20T16:53:34.564Z,9.57
2023-05-20T16:56:21.614Z,9.82
2023-05-20T16:59:09.338Z,9.48
2023-05-20T17:01:55.689Z,9.93
2023-05-20T17:04:42.197Z,11.20
2023-05-20T17:07:28.455Z,10.80
2023-05-20T17:10:14.685Z,8.95
2023-05-20T17:13:01.087Z,9.80
2023-05-20T17:15:48.631Z,9.90
2023-05-20T17:18:34.908Z,8.93
2023-05-20T17:21:21.356Z,10.52
2023-05-20T17:24:07.832Z,8.98
2023-05-20T17:26:57.824Z,10.27
2023-05-20T17:29:44.208Z,11.38
2023-05-20T17:32:31.836Z,8.60
2023-05-20T17:35:20.326Z,9.98
2023-05-20T17:38:06.617Z,10.60
2023-05-20T17:40:52.861Z,8.88
2023-05-20T17:43:39.229Z,8.32
2023-05-20T17:46:25.675Z,7.85
2023-05-20T17:49:13.300Z,8.55
2023-05-20T17:51:59.507Z,7.70
2023-05-20T17:54:45.858Z,9.27
2023-05-20T17:57:32.163Z,9.10
2023-05-20T18:00:21.402Z,8.70
2023-05-20T18:03:07.926Z,8.60
2023-05-20T18:05:56.094Z,8.15
2023-05-20T18:08:42.735Z,7.88
2023-05-20T18:11:31.757Z,8.30
2023-05-20T18:14:21.898Z,9.73
2023-05-20T18:17:08.235Z,8.00
2023-05-20T18:19:54.474Z,8.45
2023-05-20T18:22:45.332Z,8.40
2023-05-20T18:25:31.586Z,7.78
2023-05-20T18:28:17.856Z,8.60
2023-05-20T18:31:04.122Z,8.40
2023-05-20T18:33:50.456Z,8.35
2023-05-20T18:36:37.341Z,9.30
2023-05-20T18:39:25.087Z,7.65
2023-05-20T18:42:11.523Z,7.32
2023-05-20T18:44:57.834Z,8.95
2023-05-20T18:47:44.170Z,7.38
2023-05-20T18:50:30.590Z,8.45
2023-05-20T18:53:18.749Z,8.18
2023-05-20T18:56:07.208Z,7.47
2023-05-20T18:58:53.402Z,8.02
2023-05-20T19:01:40.175Z,7.90
2023-05-20T19:04:26.874Z,9.50
2023-05-20T19:07:13.374Z,10.18
2023-05-20T19:09:59.834Z,10.00
2023-05-20T19:12:47.556Z,8.85
2023-05-20T19:15:34.089Z,9.30
2023-05-20T19:18:21.458Z,9.40
2023-05-20T19:21:07.498Z,8.63
2023-05-20T19:23:53.952Z,8.98
2023-05-20T19:26:40.511Z,8.55
2023-05-20T19:29:28.180Z,7.82
2023-05-20T19:32:14.257Z,7.43
2023-05-20T19:35:00.734Z,9.80
2023-05-20T19:37:46.973Z,10.50
2023-05-20T19:40:33.568Z,10.93
2023-05-20T19:43:20.091Z,10.60
2023-05-20T19:46:07.849Z,9.48
2023-05-20T19:48:53.975Z,8.77
2023-05-20T19:51:40.416Z,7.30
2023-05-20T19:54:27.645Z,7.72
2023-05-20T19:57:13.973Z,7.88
2023-05-20T20:00:00.427Z,8.05
2023-05-20T20:02:48.118Z,7.75
2023-05-20T20:05:34.787Z,7.07
2023-05-20T20:08:21.132Z,7.70
2023-05-20T20:11:07.709Z,8.02
2023-05-20T20:13:53.850Z,7.00
2023-05-20T20:16:41.696Z,7.38
2023-05-20T20:19:29.446Z,6.45
2023-05-20T20:22:16.196Z,6.97
2023-05-20T20:25:03.624Z,7.38
2023-05-20T20:27:50.199Z,8.00
2023-05-20T20:30:36.828Z,6.22
2023-05-20T20:33:23.313Z,7.53
2023-05-20T20:36:11.048Z,7.63
2023-05-20T20:38:56.973Z,7.15
2023-05-20T20:41:45.107Z,6.97
2023-05-20T20:44:32.399Z,7.63
2023-05-20T20:47:18.415Z,7.07
2023-05-20T20:50:04.821Z,6.28
2023-05-20T20:52:52.224Z,6.32
2023-05-20T20:55:38.452Z,6.28
2023-05-20T20:58:24.684Z,6.70
2023-05-20T21:01:11.239Z,5.95
2023-05-20T21:03:58.570Z,5.57
2023-05-20T21:06:46.024Z,5.90
2023-05-20T21:09:33.638Z,4.82
2023-05-20T21:12:19.683Z,5.45
2023-05-20T21:15:06.595Z,5.50
2023-05-20T21:17:53.027Z,5.47
2023-05-20T21:20:39.570Z,5.15
2023-05-20T21:23:25.817Z,4.25
2023-05-20T21:26:13.547Z,4.57
2023-05-20T21:28:59.745Z,4.03
2023-05-20T21:31:46.020Z,4.88
2023-05-20T21:34:32.936Z,5.80
2023-05-20T21:37:19.208Z,5.05
2023-05-20T21:40:05.976Z,5.72
2023-05-20T21:42:53.629Z,5.30
2023-05-20T21:45:39.877Z,5.45
2023-05-20T21:48:26.172Z,4.78
2023-05-20T21:51:12.434Z,5.45
2023-05-20T21:53:58.710Z,4.82
2023-05-20T21:56:45.265Z,4.78
2023-05-20T21:59:32.931Z,5.25
2023-05-20T22:02:19.126Z,4.15
2023-05-20T22:05:06.629Z,5.93
2023-05-20T22:07:53.057Z,4.38
2023-05-20T22:10:39.245Z,5.07
2023-05-20T22:13:26.303Z,5.15
2023-05-20T22:16:14.252Z,4.43
2023-05-20T22:19:02.616Z,4.90
2023-05-20T22:21:50.578Z,4.85
2023-05-20T22:24:37.464Z,4.68
2023-05-20T22:27:24.125Z,4.60
2023-05-20T22:30:11.050Z,4.50
2023-05-20T22:32:59.230Z,4.43
2023-05-20T22:35:45.728Z,4.20
2023-05-20T22:38:32.552Z,4.15
2023-05-20T22:41:18.692Z,3.90
2023-05-20T22:44:05.250Z,4.40
2023-05-20T22:46:51.316Z,4.10
2023-05-20T22:49:40.385Z,6.65
2023-05-20T22:52:26.618Z,4.95
2023-05-20T22:55:12.911Z,4.72
2023-05-20T22:57:59.218Z,4.38
2023-05-20T23:00:45.780Z,4.18
2023-05-20T23:03:32.029Z,4.18
2023-05-20T23:06:19.787Z,4.07
2023-05-20T23:09:05.989Z,3.67
2023-05-20T23:11:52.058Z,4.00
2023-05-20T23:14:38.278Z,3.92
2023-05-20T23:17:24.699Z,3.97
2023-05-20T23:20:12.008Z,3.88
2023-05-20T23:23:05.571Z,3.55
2023-05-20T23:25:57.474Z,3.78
2023-05-20T23:28:43.813Z,3.00
2023-05-20T23:31:30.496Z,3.20
2023-05-20T23:34:16.934Z,3.10
2023-05-20T23:37:03.154Z,2.92
2023-05-20T23:39:50.935Z,3.13
2023-05-20T23:42:37.571Z,3.35
2023-05-20T23:45:23.781Z,3.08
2023-05-20T23:48:13.466Z,2.90
2023-05-20T23:51:00.067Z,3.25
2023-05-20T23:53:46.396Z,3.10
2023-05-20T23:56:34.061Z,2.90
2023-05-20T23:59:20.434Z,2.45
